createdAt,value
2019-01-23T00:00:24.695Z,4.50
2019-01-23T00:02:54.200Z,4.27
2019-01-23T00:05:23.008Z,4.67
2019-01-23T00:07:51.713Z,4.80
2019-01-23T00:10:20.504Z,4.93
2019-01-23T00:12:49.294Z,4.73
2019-01-23T00:15:18.074Z,4.20
2019-01-23T00:17:46.875Z,4.30
2019-01-23T00:20:15.650Z,4.40
2019-01-23T00:22:44.370Z,5.03
2019-01-23T00:25:13.614Z,4.57
2019-01-23T00:27:42.420Z,4.23
2019-01-23T00:30:11.515Z,4.40
2019-01-23T00:32:40.296Z,4.10
2019-01-23T00:35:09.456Z,3.90
2019-01-23T00:37:38.602Z,4.20
2019-01-23T00:40:08.815Z,4.00
2019-01-23T00:42:37.636Z,3.73
2019-01-23T00:45:07.388Z,4.77
2019-01-23T00:47:36.248Z,4.30
2019-01-23T00:50:06.385Z,4.30
2019-01-23T00:52:35.227Z,4.40
2019-01-23T00:55:04.619Z,4.80
2019-01-23T00:57:33.394Z,4.40
2019-01-23T01:00:02.109Z,4.80
2019-01-23T01:02:30.898Z,4.00
2019-01-23T01:05:00.205Z,4.07
2019-01-23T01:07:28.964Z,4.40
2019-01-23T01:09:57.745Z,4.33
2019-01-23T01:12:26.540Z,4.17
2019-01-23T01:14:55.357Z,4.60
2019-01-23T01:17:24.161Z,4.03
2019-01-23T01:19:52.896Z,4.27
2019-01-23T01:22:21.728Z,4.20
2019-01-23T01:24:50.514Z,3.50
2019-01-23T01:27:19.333Z,4.00
2019-01-23T01:29:48.035Z,4.00
2019-01-23T01:32:16.845Z,3.57
2019-01-23T01:34:45.559Z,3.40
2019-01-23T01:37:14.342Z,3.57
2019-01-23T01:39:43.443Z,3.50
2019-01-23T01:42:12.231Z,3.47
2019-01-23T01:44:41.042Z,3.50
2019-01-23T01:47:09.833Z,3.10
2019-01-23T01:49:38.607Z,3.23
2019-01-23T01:52:07.485Z,3.50
2019-01-23T01:54:36.283Z,3.77
2019-01-23T01:57:05.353Z,3.60
2019-01-23T01:59:34.170Z,3.33
2019-01-23T02:02:02.968Z,3.17
2019-01-23T02:04:31.759Z,3.30
2019-01-23T02:07:00.567Z,2.87
2019-01-23T02:09:35.337Z,3.00
2019-01-23T02:12:00.186Z,3.20
2019-01-23T02:14:28.910Z,3.47
2019-01-23T02:16:57.723Z,3.00
2019-01-23T02:19:26.527Z,3.40
2019-01-23T02:21:55.424Z,3.50
2019-01-23T02:24:24.139Z,3.10
2019-01-23T02:26:53.234Z,3.47
2019-01-23T02:29:21.983Z,3.43
2019-01-23T02:31:50.829Z,3.10
2019-01-23T02:34:19.693Z,3.20
2019-01-23T02:36:48.586Z,3.60
2019-01-23T02:39:17.849Z,3.10
2019-01-23T02:41:46.763Z,3.30
2019-01-23T02:44:15.564Z,2.97
2019-01-23T02:46:44.448Z,3.30
2019-01-23T02:49:13.281Z,3.00
2019-01-23T02:51:42.263Z,3.23
2019-01-23T02:54:11.328Z,3.80
2019-01-23T02:56:40.127Z,3.50
2019-01-23T02:59:08.875Z,3.80
2019-01-23T03:01:37.707Z,3.50
2019-01-23T03:04:06.535Z,3.50
2019-01-23T03:06:35.474Z,3.80
2019-01-23T03:09:06.526Z,3.73
2019-01-23T03:11:35.602Z,3.30
2019-01-23T03:14:04.813Z,3.10
2019-01-23T03:16:33.755Z,3.50
2019-01-23T03:19:02.735Z,3.23
2019-01-23T03:21:31.540Z,3.40
2019-01-23T03:24:00.656Z,3.47
2019-01-23T03:26:29.576Z,3.70
2019-01-23T03:28:58.324Z,3.50
2019-01-23T03:31:27.256Z,3.40
2019-01-23T03:33:56.084Z,3.93
2019-01-23T03:36:24.972Z,3.80
2019-01-23T03:38:54.071Z,3.63
2019-01-23T03:41:22.968Z,3.80
2019-01-23T03:43:51.800Z,3.60
2019-01-23T03:46:20.609Z,3.77
2019-01-23T03:48:49.493Z,3.60
2019-01-23T03:51:18.295Z,3.70
2019-01-23T03:53:47.094Z,3.60
2019-01-23T03:56:15.940Z,3.80
2019-01-23T03:58:44.876Z,3.30
2019-01-23T04:01:13.814Z,3.67
2019-01-23T04:03:42.661Z,3.60
2019-01-23T04:06:11.565Z,3.43
2019-01-23T04:08:40.412Z,4.03
2019-01-23T04:11:09.613Z,3.50
2019-01-23T04:13:38.597Z,3.90
2019-01-23T04:16:07.692Z,3.80
2019-01-23T04:18:36.387Z,3.73
2019-01-23T04:21:05.711Z,3.70
2019-01-23T04:23:34.626Z,4.10
2019-01-23T04:26:03.547Z,3.80
2019-01-23T04:28:32.408Z,4.07
2019-01-23T04:31:01.207Z,3.97
2019-01-23T04:33:29.985Z,3.97
2019-01-23T04:35:59.088Z,4.40
2019-01-23T04:38:27.875Z,3.60
2019-01-23T04:40:56.652Z,3.90
2019-01-23T04:43:25.699Z,4.07
2019-01-23T04:45:54.422Z,4.07
2019-01-23T04:48:23.423Z,4.17
2019-01-23T04:51:14.371Z,4.10
2019-01-23T04:53:45.312Z,4.27
2019-01-23T04:56:14.769Z,4.00
2019-01-23T04:58:43.744Z,4.00
2019-01-23T05:01:12.517Z,3.90
2019-01-23T05:03:41.354Z,3.73
2019-01-23T05:06:10.205Z,3.93
2019-01-23T05:08:39.573Z,4.13
2019-01-23T05:11:08.361Z,4.43
2019-01-23T05:13:37.160Z,4.23
2019-01-23T05:16:06.873Z,4.83
2019-01-23T05:18:35.934Z,4.37
2019-01-23T05:21:04.900Z,4.50
2019-01-23T05:23:33.655Z,4.60
2019-01-23T05:26:02.382Z,4.37
2019-01-23T05:28:31.209Z,4.50
2019-01-23T05:30:59.935Z,4.23
2019-01-23T05:33:28.817Z,4.20
2019-01-23T05:35:57.507Z,4.70
2019-01-23T05:38:26.212Z,4.43
2019-01-23T05:40:55.296Z,4.30
2019-01-23T05:43:24.135Z,4.40
2019-01-23T05:45:52.897Z,4.17
2019-01-23T05:48:21.992Z,4.20
2019-01-23T05:50:50.760Z,4.60
2019-01-23T05:53:19.602Z,4.40
2019-01-23T05:55:48.365Z,4.37
2019-01-23T05:58:17.145Z,4.27
2019-01-23T06:00:45.894Z,4.63
2019-01-23T06:03:14.687Z,4.70
2019-01-23T06:05:43.535Z,3.90
2019-01-23T06:08:12.303Z,4.40
2019-01-23T06:10:41.038Z,4.47
2019-01-23T06:13:10.584Z,4.70
2019-01-23T06:15:39.765Z,4.77
2019-01-23T06:18:08.876Z,4.50
2019-01-23T06:20:38.066Z,4.43
2019-01-23T06:23:07.307Z,4.20
2019-01-23T06:25:36.109Z,4.40
2019-01-23T06:28:04.995Z,4.53
2019-01-23T06:30:34.348Z,4.40
2019-01-23T06:33:03.144Z,4.73
2019-01-23T06:35:31.861Z,4.80
2019-01-23T06:38:00.630Z,4.17
2019-01-23T06:40:29.436Z,4.10
2019-01-23T06:42:58.247Z,4.57
2019-01-23T06:45:27.340Z,4.47
2019-01-23T06:47:56.221Z,4.53
2019-01-23T06:50:24.990Z,4.27
2019-01-23T06:52:53.782Z,4.30
2019-01-23T06:55:22.580Z,4.40
2019-01-23T06:57:51.363Z,4.50
2019-01-23T07:00:22.775Z,4.43
2019-01-23T07:02:51.628Z,4.40
2019-01-23T07:05:20.411Z,4.70
2019-01-23T07:07:49.196Z,4.93
2019-01-23T07:10:22.688Z,4.77
2019-01-23T07:12:51.571Z,5.00
2019-01-23T07:15:20.680Z,5.00
2019-01-23T07:17:49.470Z,4.43
2019-01-23T07:20:20.692Z,4.87
2019-01-23T07:22:49.471Z,5.37
2019-01-23T07:25:19.548Z,5.37
2019-01-23T07:27:48.383Z,5.17
2019-01-23T07:30:26.028Z,5.27
2019-01-23T07:32:54.942Z,5.50
2019-01-23T07:35:23.842Z,5.10
2019-01-23T07:37:52.708Z,4.80
2019-01-23T07:40:21.492Z,5.87
2019-01-23T07:42:51.024Z,5.77
2019-01-23T07:45:20.257Z,4.90
2019-01-23T07:47:49.039Z,4.93
2019-01-23T07:50:17.853Z,5.30
2019-01-23T07:52:46.634Z,4.80
2019-01-23T07:55:17.927Z,4.80
2019-01-23T07:57:47.114Z,5.00
2019-01-23T08:00:17.736Z,4.60
2019-01-23T08:02:46.593Z,4.80
2019-01-23T08:05:19.571Z,4.60
2019-01-23T08:07:48.182Z,4.03
2019-01-23T08:10:17.372Z,4.60
2019-01-23T08:12:46.228Z,4.70
2019-01-23T08:15:22.975Z,4.87
2019-01-23T08:17:52.145Z,4.50
2019-01-23T08:20:21.780Z,4.30
2019-01-23T08:22:50.668Z,4.77
2019-01-23T08:25:19.662Z,4.57
2019-01-23T08:27:48.482Z,4.50
2019-01-23T08:30:18.729Z,4.00
2019-01-23T08:32:47.515Z,4.40
2019-01-23T08:35:16.655Z,4.43
2019-01-23T08:37:45.434Z,4.73
2019-01-23T08:40:15.340Z,4.40
2019-01-23T08:42:44.186Z,4.70
2019-01-23T08:45:13.560Z,4.40
2019-01-23T08:47:42.520Z,5.10
2019-01-23T08:50:20.409Z,4.70
2019-01-23T08:52:49.172Z,4.73
2019-01-23T08:55:18.526Z,4.90
2019-01-23T08:57:47.293Z,4.67
2019-01-23T09:00:16.120Z,4.87
2019-01-23T09:02:44.915Z,4.37
2019-01-23T09:05:13.898Z,5.10
2019-01-23T09:07:42.753Z,5.30
2019-01-23T09:10:14.488Z,4.80
2019-01-23T09:12:43.349Z,4.83
2019-01-23T09:15:12.896Z,4.70
2019-01-23T09:17:41.990Z,5.00
2019-01-23T09:20:11.934Z,4.77
2019-01-23T09:22:40.710Z,4.90
2019-01-23T09:25:11.299Z,4.80
2019-01-23T09:27:40.071Z,4.67
2019-01-23T09:30:13.608Z,4.90
2019-01-23T09:33:05.976Z,5.10
2019-01-23T09:36:03.994Z,5.00
2019-01-23T09:38:45.841Z,4.30
2019-01-23T09:41:45.220Z,4.87
2019-01-23T09:44:43.165Z,5.27
2019-01-23T09:47:34.383Z,4.60
2019-01-23T09:50:37.503Z,5.20
2019-01-23T09:53:30.436Z,5.20
2019-01-23T09:55:59.358Z,5.67
2019-01-23T09:58:28.206Z,4.90
2019-01-23T10:00:59.885Z,5.30
2019-01-23T10:03:27.586Z,5.10
2019-01-23T10:05:56.391Z,4.90
2019-01-23T10:08:25.530Z,5.07
2019-01-23T10:10:54.303Z,4.50
2019-01-23T10:13:23.013Z,4.87
2019-01-23T10:16:01.340Z,5.20
2019-01-23T10:18:30.030Z,4.87
2019-01-23T10:20:59.135Z,5.47
2019-01-23T10:23:27.853Z,5.20
2019-01-23T10:25:56.542Z,5.73
2019-01-23T10:28:25.248Z,5.10
2019-01-23T10:30:54.011Z,6.17
2019-01-23T10:33:23.073Z,5.50
2019-01-23T10:35:51.775Z,5.00
2019-01-23T10:38:20.875Z,5.83
2019-01-23T10:40:49.728Z,5.83
2019-01-23T10:43:18.462Z,6.60
2019-01-23T10:45:47.372Z,5.23
2019-01-23T10:48:16.086Z,5.80
2019-01-23T10:50:44.859Z,5.60
2019-01-23T10:53:13.559Z,5.53
2019-01-23T10:55:42.251Z,6.13
2019-01-23T10:58:11.765Z,5.50
2019-01-23T11:00:40.556Z,5.80
2019-01-23T11:03:10.132Z,5.30
2019-01-23T11:05:39.272Z,5.70
2019-01-23T11:08:08.028Z,5.57
2019-01-23T11:10:37.508Z,5.47
2019-01-23T11:13:06.603Z,5.90
2019-01-23T11:15:35.368Z,5.80
2019-01-23T11:18:04.695Z,5.73
2019-01-23T11:20:33.473Z,5.63
2019-01-23T11:23:02.297Z,5.60
2019-01-23T11:25:31.114Z,6.27
2019-01-23T11:28:00.151Z,5.90
2019-01-23T11:30:28.926Z,5.70
2019-01-23T11:32:57.755Z,6.00
2019-01-23T11:35:26.489Z,6.30
2019-01-23T11:37:55.251Z,6.03
2019-01-23T11:40:26.728Z,5.53
2019-01-23T11:42:55.420Z,5.67
2019-01-23T11:45:24.183Z,6.13
2019-01-23T11:47:53.971Z,6.50
2019-01-23T11:50:23.236Z,5.73
2019-01-23T11:52:52.168Z,5.57
2019-01-23T11:55:20.941Z,5.87
2019-01-23T11:57:49.763Z,5.77
2019-01-23T12:00:20.333Z,6.63
2019-01-23T12:02:49.206Z,6.23
2019-01-23T12:05:19.764Z,5.83
2019-01-23T12:07:49.039Z,6.03
2019-01-23T12:10:19.352Z,5.70
2019-01-23T12:12:48.339Z,6.10
2019-01-23T12:15:19.216Z,5.80
2019-01-23T12:17:48.056Z,5.80
2019-01-23T12:20:16.931Z,6.07
2019-01-23T12:22:45.901Z,6.10
2019-01-23T12:25:15.248Z,6.50
2019-01-23T12:27:44.253Z,5.87
2019-01-23T12:30:19.277Z,6.20
2019-01-23T12:32:48.948Z,5.53
2019-01-23T12:35:17.804Z,6.00
2019-01-23T12:37:46.572Z,6.00
2019-01-23T12:40:15.776Z,6.20
2019-01-23T12:42:44.459Z,6.60
2019-01-23T12:45:16.875Z,5.90
2019-01-23T12:47:45.936Z,6.00
2019-01-23T12:50:16.435Z,6.53
2019-01-23T12:52:45.261Z,5.87
2019-01-23T12:55:14.083Z,6.20
2019-01-23T12:57:42.854Z,6.07
2019-01-23T13:00:15.244Z,6.47
2019-01-23T13:02:44.733Z,6.23
2019-01-23T13:05:14.605Z,5.60
2019-01-23T13:07:43.363Z,5.80
2019-01-23T13:10:15.343Z,5.67
2019-01-23T13:12:44.206Z,6.43
2019-01-23T13:15:14.804Z,5.90
2019-01-23T13:17:45.255Z,6.33
2019-01-23T13:20:15.206Z,5.80
2019-01-23T13:22:43.976Z,5.97
2019-01-23T13:25:15.471Z,5.73
2019-01-23T13:27:44.514Z,6.23
2019-01-23T13:30:15.990Z,6.10
2019-01-23T13:32:44.800Z,5.80
2019-01-23T13:35:15.298Z,6.00
2019-01-23T13:37:44.054Z,6.03
2019-01-23T13:40:31.159Z,6.37
2019-01-23T13:43:00.939Z,6.00
2019-01-23T13:45:29.780Z,6.03
2019-01-23T13:47:59.061Z,6.20
2019-01-23T13:50:27.828Z,5.80
2019-01-23T13:52:56.663Z,5.83
2019-01-23T13:55:26.128Z,6.00
2019-01-23T13:57:55.051Z,6.27
2019-01-23T14:00:26.791Z,5.90
2019-01-23T14:02:55.678Z,5.50
2019-01-23T14:05:24.751Z,6.00
2019-01-23T14:07:53.515Z,5.67
2019-01-23T14:10:22.314Z,5.70
2019-01-23T14:12:51.075Z,6.80
2019-01-23T14:15:22.754Z,5.73
2019-01-23T14:17:51.549Z,5.80
2019-01-23T14:20:20.384Z,5.80
2019-01-23T14:22:49.147Z,6.07
2019-01-23T14:25:17.975Z,6.20
2019-01-23T14:27:46.703Z,6.50
2019-01-23T14:30:19.285Z,6.10
2019-01-23T14:32:48.152Z,5.90
2019-01-23T14:35:17.259Z,6.43
2019-01-23T14:37:46.146Z,5.97
2019-01-23T14:40:14.926Z,6.10
2019-01-23T14:42:43.811Z,6.27
2019-01-23T14:45:13.756Z,5.70
2019-01-23T14:47:42.611Z,6.27
2019-01-23T14:50:13.097Z,5.90
2019-01-23T14:52:43.959Z,6.23
2019-01-23T14:55:12.891Z,6.57
2019-01-23T14:57:42.078Z,5.90
2019-01-23T15:00:20.006Z,5.83
2019-01-23T15:02:48.782Z,5.93
2019-01-23T15:05:17.563Z,5.30
2019-01-23T15:07:46.362Z,5.70
2019-01-23T15:10:17.779Z,5.57
2019-01-23T15:12:46.559Z,5.90
2019-01-23T15:15:16.031Z,5.47
2019-01-23T15:17:44.782Z,5.73
2019-01-23T15:20:26.156Z,5.43
2019-01-23T15:22:54.931Z,5.80
2019-01-23T15:25:23.769Z,5.63
2019-01-23T15:27:52.658Z,5.63
2019-01-23T15:30:21.886Z,5.13
2019-01-23T15:32:52.246Z,5.07
2019-01-23T15:35:21.410Z,6.03
2019-01-23T15:37:50.184Z,5.23
2019-01-23T15:40:27.416Z,4.93
2019-01-23T15:42:56.351Z,5.50
2019-01-23T15:45:25.220Z,5.30
2019-01-23T15:47:54.535Z,5.67
2019-01-23T15:50:24.279Z,5.20
2019-01-23T15:52:53.047Z,6.20
2019-01-23T15:55:23.349Z,5.90
2019-01-23T15:57:52.198Z,5.13
2019-01-23T16:00:31.667Z,5.20
2019-01-23T16:03:00.442Z,5.70
2019-01-23T16:05:29.536Z,5.47
2019-01-23T16:07:59.170Z,5.77
2019-01-23T16:10:29.020Z,6.17
2019-01-23T16:12:57.793Z,5.93
2019-01-23T16:15:28.281Z,5.33
2019-01-23T16:17:57.612Z,5.73
2019-01-23T16:20:26.587Z,5.03
2019-01-23T16:22:55.483Z,5.27
2019-01-23T16:25:24.303Z,5.00
2019-01-23T16:27:54.084Z,5.70
2019-01-23T16:30:42.064Z,5.70
2019-01-23T16:33:10.846Z,5.57
2019-01-23T16:35:39.694Z,5.33
2019-01-23T16:38:10.259Z,5.07
2019-01-23T16:40:39.072Z,5.23
2019-01-23T16:43:07.849Z,5.40
2019-01-23T16:45:36.611Z,5.23
2019-01-23T16:48:05.627Z,5.57
2019-01-23T16:50:34.513Z,5.20
2019-01-23T16:53:03.365Z,5.00
2019-01-23T16:55:32.135Z,5.40
2019-01-23T16:58:01.501Z,5.63
2019-01-23T17:00:30.472Z,5.27
2019-01-23T17:03:00.454Z,5.20
2019-01-23T17:05:31.833Z,5.30
2019-01-23T17:08:03.089Z,5.43
2019-01-23T17:10:32.146Z,5.43
2019-01-23T17:13:01.202Z,5.60
2019-01-23T17:15:29.976Z,5.17
2019-01-23T17:17:58.854Z,5.17
2019-01-23T17:20:36.451Z,4.73
2019-01-23T17:23:05.801Z,5.00
2019-01-23T17:25:35.071Z,4.87
2019-01-23T17:28:04.677Z,5.03
2019-01-23T17:30:34.321Z,5.23
2019-01-23T17:33:03.135Z,4.93
2019-01-23T17:35:31.905Z,5.27
2019-01-23T17:38:00.612Z,5.30
2019-01-23T17:40:29.398Z,4.40
2019-01-23T17:42:58.165Z,5.27
2019-01-23T17:45:29.272Z,5.43
2019-01-23T17:47:58.127Z,5.00
2019-01-23T17:50:26.992Z,4.97
2019-01-23T17:52:56.174Z,5.20
2019-01-23T17:55:27.720Z,5.07
2019-01-23T17:57:56.995Z,5.10
2019-01-23T18:00:28.534Z,4.93
2019-01-23T18:02:57.310Z,5.00
2019-01-23T18:05:26.191Z,4.83
2019-01-23T18:07:55.494Z,5.20
2019-01-23T18:10:24.844Z,5.13
2019-01-23T18:12:53.644Z,4.90
2019-01-23T18:15:24.013Z,5.07
2019-01-23T18:17:53.182Z,5.03
2019-01-23T18:20:24.412Z,5.37
2019-01-23T18:22:53.567Z,5.10
2019-01-23T18:25:22.332Z,4.50
2019-01-23T18:27:51.202Z,5.17
2019-01-23T18:30:22.903Z,4.57
2019-01-23T18:32:51.893Z,4.60
2019-01-23T18:35:45.105Z,4.80
2019-01-23T18:38:36.912Z,4.47
2019-01-23T18:42:05.299Z,4.80
2019-01-23T18:44:54.610Z,4.80
2019-01-23T18:48:10.661Z,4.93
2019-01-23T18:51:02.393Z,4.30
2019-01-23T18:53:31.211Z,4.30
2019-01-23T18:55:59.981Z,4.23
2019-01-23T18:58:29.212Z,4.30
2019-01-23T19:00:57.991Z,4.50
2019-01-23T19:03:26.771Z,4.30
2019-01-23T19:05:55.548Z,4.03
2019-01-23T19:08:24.327Z,4.00
2019-01-23T19:10:53.133Z,4.57
2019-01-23T19:13:22.104Z,4.23
2019-01-23T19:15:50.869Z,4.07
2019-01-23T19:18:19.738Z,4.20
2019-01-23T19:20:48.502Z,4.10
2019-01-23T19:23:17.271Z,4.27
2019-01-23T19:25:46.303Z,4.73
2019-01-23T19:28:15.221Z,4.17
2019-01-23T19:30:44.538Z,4.07
2019-01-23T19:33:13.900Z,4.10
2019-01-23T19:35:42.741Z,4.53
2019-01-23T19:38:11.560Z,4.15
2019-01-23T19:40:40.327Z,4.40
2019-01-23T19:43:09.075Z,4.60
2019-01-23T19:45:37.878Z,4.50
2019-01-23T19:48:06.689Z,4.03
2019-01-23T19:50:35.725Z,4.83
2019-01-23T19:53:05.120Z,4.57
2019-01-23T19:55:34.081Z,4.37
2019-01-23T19:58:04.481Z,4.50
2019-01-23T20:00:33.844Z,4.43
2019-01-23T20:03:02.538Z,4.63
2019-01-23T20:05:32.353Z,4.30
2019-01-23T20:08:01.985Z,4.37
2019-01-23T20:10:30.779Z,4.60
2019-01-23T20:12:59.639Z,4.30
2019-01-23T20:15:28.439Z,4.43
2019-01-23T20:18:00.566Z,4.50
2019-01-23T20:20:29.259Z,4.57
2019-01-23T20:22:58.054Z,4.93
2019-01-23T20:25:27.952Z,4.53
2019-01-23T20:27:56.864Z,4.60
2019-01-23T20:30:32.217Z,4.67
2019-01-23T20:33:01.298Z,4.27
2019-01-23T20:35:30.626Z,4.50
2019-01-23T20:37:59.387Z,4.70
2019-01-23T20:40:28.277Z,4.30
2019-01-23T20:42:56.967Z,4.50
2019-01-23T20:45:25.804Z,4.80
2019-01-23T20:47:54.603Z,4.43
2019-01-23T20:50:25.963Z,4.70
2019-01-23T20:52:55.117Z,4.90
2019-01-23T20:55:24.094Z,4.27
2019-01-23T20:57:52.971Z,4.77
2019-01-23T21:00:24.162Z,4.67
2019-01-23T21:02:53.200Z,4.40
2019-01-23T21:05:22.064Z,4.83
2019-01-23T21:07:50.760Z,5.17
2019-01-23T21:10:20.123Z,4.33
2019-01-23T21:12:49.466Z,4.67
2019-01-23T21:15:23.558Z,4.20
2019-01-23T21:17:52.354Z,4.23
2019-01-23T21:20:21.127Z,4.37
2019-01-23T21:22:49.897Z,4.30
2019-01-23T21:25:18.708Z,4.40
2019-01-23T21:27:47.666Z,4.70
2019-01-23T21:30:18.887Z,3.90
2019-01-23T21:32:47.727Z,4.40
2019-01-23T21:35:16.953Z,3.80
2019-01-23T21:37:46.059Z,3.90
2019-01-23T21:40:17.593Z,3.53
2019-01-23T21:42:46.472Z,3.50
2019-01-23T21:45:15.455Z,3.93
2019-01-23T21:47:44.444Z,3.90
2019-01-23T21:50:18.292Z,4.00
2019-01-23T21:52:47.300Z,4.03
2019-01-23T21:55:18.200Z,3.97
2019-01-23T21:57:47.045Z,4.10
2019-01-23T22:00:24.831Z,4.00
2019-01-23T22:02:54.869Z,4.47
2019-01-23T22:05:23.711Z,4.00
2019-01-23T22:07:53.138Z,4.20
2019-01-23T22:10:22.407Z,4.47
2019-01-23T22:12:51.191Z,4.30
2019-01-23T22:15:21.415Z,4.60
2019-01-23T22:17:50.181Z,4.27
2019-01-23T22:20:19.619Z,4.43
2019-01-23T22:22:53.122Z,4.43
2019-01-23T22:25:25.506Z,5.03
2019-01-23T22:27:54.697Z,4.97
2019-01-23T22:30:25.693Z,5.23
2019-01-23T22:32:54.632Z,4.63
2019-01-23T22:35:23.383Z,4.70
2019-01-23T22:37:52.164Z,4.70
2019-01-23T22:40:21.248Z,4.50
2019-01-23T22:42:50.015Z,4.57
2019-01-23T22:45:20.054Z,4.30
2019-01-23T22:47:48.914Z,4.37
2019-01-23T22:50:22.860Z,4.70
2019-01-23T22:52:51.745Z,4.67
2019-01-23T22:55:20.711Z,4.40
2019-01-23T22:57:49.540Z,4.70
2019-01-23T23:00:24.655Z,5.17
2019-01-23T23:02:53.384Z,4.80
2019-01-23T23:05:22.276Z,4.60
2019-01-23T23:07:51.041Z,4.20
2019-01-23T23:10:20.047Z,4.80
2019-01-23T23:12:48.820Z,4.93
2019-01-23T23:15:17.678Z,4.73
2019-01-23T23:17:46.471Z,4.80
2019-01-23T23:20:15.345Z,5.10
2019-01-23T23:22:44.162Z,4.90
2019-01-23T23:25:13.208Z,4.90
2019-01-23T23:27:41.965Z,4.67
2019-01-23T23:30:12.491Z,4.80
2019-01-23T23:32:41.546Z,4.70
2019-01-23T23:35:10.402Z,4.87
2019-01-23T23:37:39.155Z,4.83
2019-01-23T23:40:08.962Z,5.20
2019-01-23T23:42:38.052Z,4.93
2019-01-23T23:45:08.276Z,5.07
2019-01-23T23:47:37.043Z,4.87
2019-01-23T23:50:07.108Z,4.97
2019-01-23T23:52:35.968Z,5.23
2019-01-23T23:55:05.292Z,5.00
2019-01-23T23:57:33.987Z,5.00
